sensor_id;sensor_type;location;lat;lon;timestamp;P1;durP1;ratioP1;P2;durP2;ratioP2
40595;SDS011;26304;48.794;9.820;2024-01-11T00:02:07;4.70;;;4.30;;
40595;SDS011;26304;48.794;9.820;2024-01-11T00:04:30;4.78;;;4.38;;
40595;SDS011;26304;48.794;9.820;2024-01-11T00:06:55;4.65;;;4.25;;
40595;SDS011;26304;48.794;9.820;2024-01-11T00:09:18;5.20;;;4.72;;
40595;SDS011;26304;48.794;9.820;2024-01-11T00:11:41;5.05;;;4.65;;
40595;SDS011;26304;48.794;9.820;2024-01-11T00:14:03;4.85;;;4.45;;
40595;SDS011;26304;48.794;9.820;2024-01-11T00:16:26;5.20;;;4.80;;
40595;SDS011;26304;48.794;9.820;2024-01-11T00:18:51;4.97;;;4.55;;
40595;SDS011;26304;48.794;9.820;2024-01-11T00:21:13;4.90;;;4.50;;
40595;SDS011;26304;48.794;9.820;2024-01-11T00:23:36;5.60;;;5.13;;
40595;SDS011;26304;48.794;9.820;2024-01-11T00:26:00;5.00;;;4.60;;
40595;SDS011;26304;48.794;9.820;2024-01-11T00:28:23;4.50;;;4.10;;
40595;SDS011;26304;48.794;9.820;2024-01-11T00:30:45;4.60;;;4.20;;
40595;SDS011;26304;48.794;9.820;2024-01-11T00:33:08;5.20;;;4.43;;
40595;SDS011;26304;48.794;9.820;2024-01-11T00:42:07;4.75;;;4.35;;
40595;SDS011;26304;48.794;9.820;2024-01-11T00:44:29;4.78;;;4.38;;
40595;SDS011;26304;48.794;9.820;2024-01-11T00:46:52;4.80;;;4.40;;
40595;SDS011;26304;48.794;9.820;2024-01-11T00:49:15;5.00;;;4.60;;
40595;SDS011;26304;48.794;9.820;2024-01-11T00:51:38;4.80;;;4.40;;
40595;SDS011;26304;48.794;9.820;2024-01-11T00:54:00;4.72;;;4.32;;
40595;SDS011;26304;48.794;9.820;2024-01-11T00:56:23;4.65;;;4.25;;
40595;SDS011;26304;48.794;9.820;2024-01-11T00:58:47;4.78;;;4.28;;
40595;SDS011;26304;48.794;9.820;2024-01-11T01:01:10;4.70;;;4.30;;
40595;SDS011;26304;48.794;9.820;2024-01-11T01:03:32;4.78;;;4.38;;
40595;SDS011;26304;48.794;9.820;2024-01-11T01:05:56;4.78;;;4.18;;
40595;SDS011;26304;48.794;9.820;2024-01-11T01:08:18;4.50;;;4.10;;
40595;SDS011;26304;48.794;9.820;2024-01-11T01:10:41;4.38;;;3.97;;
40595;SDS011;26304;48.794;9.820;2024-01-11T01:13:04;4.35;;;3.90;;
40595;SDS011;26304;48.794;9.820;2024-01-11T01:15:28;5.18;;;4.68;;
40595;SDS011;26304;48.794;9.820;2024-01-11T01:17:50;4.18;;;3.88;;
40595;SDS011;26304;48.794;9.820;2024-01-11T01:20:13;4.53;;;4.13;;
40595;SDS011;26304;48.794;9.820;2024-01-11T01:22:36;4.43;;;3.97;;
40595;SDS011;26304;48.794;9.820;2024-01-11T01:24:59;3.97;;;3.67;;
40595;SDS011;26304;48.794;9.820;2024-01-11T01:27:21;4.28;;;3.90;;
40595;SDS011;26304;48.794;9.820;2024-01-11T01:29:44;3.90;;;3.60;;
40595;SDS011;26304;48.794;9.820;2024-01-11T01:32:10;4.43;;;4.03;;
40595;SDS011;26304;48.794;9.820;2024-01-11T01:34:33;4.65;;;4.25;;
40595;SDS011;26304;48.794;9.820;2024-01-11T01:36:55;4.43;;;4.05;;
40595;SDS011;26304;48.794;9.820;2024-01-11T01:39:18;4.70;;;4.30;;
40595;SDS011;26304;48.794;9.820;2024-01-11T01:41:42;4.57;;;4.18;;
40595;SDS011;26304;48.794;9.820;2024-01-11T01:44:05;4.70;;;4.30;;
40595;SDS011;26304;48.794;9.820;2024-01-11T01:46:27;4.32;;;4.00;;
40595;SDS011;26304;48.794;9.820;2024-01-11T01:48:52;4.97;;;4.57;;
40595;SDS011;26304;48.794;9.820;2024-01-11T01:51:16;4.35;;;3.95;;
40595;SDS011;26304;48.794;9.820;2024-01-11T01:53:39;4.68;;;4.38;;
40595;SDS011;26304;48.794;9.820;2024-01-11T01:56:03;4.50;;;4.13;;
40595;SDS011;26304;48.794;9.820;2024-01-11T01:58:27;4.55;;;4.18;;
40595;SDS011;26304;48.794;9.820;2024-01-11T02:00:52;4.45;;;4.13;;
40595;SDS011;26304;48.794;9.820;2024-01-11T02:03:15;4.50;;;4.10;;
40595;SDS011;26304;48.794;9.820;2024-01-11T02:05:38;4.03;;;3.72;;
40595;SDS011;26304;48.794;9.820;2024-01-11T02:08:01;4.53;;;4.13;;
40595;SDS011;26304;48.794;9.820;2024-01-11T02:10:29;4.80;;;4.40;;
40595;SDS011;26304;48.794;9.820;2024-01-11T02:12:54;4.53;;;4.13;;
40595;SDS011;26304;48.794;9.820;2024-01-11T02:15:17;4.75;;;4.35;;
40595;SDS011;26304;48.794;9.820;2024-01-11T02:17:40;4.68;;;4.28;;
40595;SDS011;26304;48.794;9.820;2024-01-11T02:20:03;4.45;;;4.05;;
40595;SDS011;26304;48.794;9.820;2024-01-11T02:22:28;4.80;;;4.40;;
40595;SDS011;26304;48.794;9.820;2024-01-11T02:24:55;4.35;;;3.95;;
40595;SDS011;26304;48.794;9.820;2024-01-11T02:27:18;3.72;;;3.42;;
40595;SDS011;26304;48.794;9.820;2024-01-11T02:29:41;4.43;;;4.13;;
40595;SDS011;26304;48.794;9.820;2024-01-11T02:32:04;4.45;;;4.05;;
40595;SDS011;26304;48.794;9.820;2024-01-11T02:34:27;4.70;;;4.30;;
40595;SDS011;26304;48.794;9.820;2024-01-11T02:36:50;4.43;;;4.13;;
40595;SDS011;26304;48.794;9.820;2024-01-11T02:39:13;4.35;;;4.03;;
40595;SDS011;26304;48.794;9.820;2024-01-11T02:41:38;4.57;;;4.18;;
40595;SDS011;26304;48.794;9.820;2024-01-11T02:44:04;4.43;;;4.07;;
40595;SDS011;26304;48.794;9.820;2024-01-11T02:46:28;4.57;;;4.18;;
40595;SDS011;26304;48.794;9.820;2024-01-11T02:48:51;5.00;;;4.60;;
40595;SDS011;26304;48.794;9.820;2024-01-11T02:51:14;4.32;;;3.92;;
40595;SDS011;26304;48.794;9.820;2024-01-11T02:53:37;4.25;;;3.92;;
40595;SDS011;26304;48.794;9.820;2024-01-11T02:55:59;4.07;;;3.78;;
40595;SDS011;26304;48.794;9.820;2024-01-11T02:58:23;4.75;;;4.35;;
40595;SDS011;26304;48.794;9.820;2024-01-11T03:00:45;4.60;;;4.20;;
40595;SDS011;26304;48.794;9.820;2024-01-11T03:03:08;4.60;;;4.20;;
40595;SDS011;26304;48.794;9.820;2024-01-11T03:05:30;4.85;;;4.45;;
40595;SDS011;26304;48.794;9.820;2024-01-11T03:07:53;4.15;;;3.85;;
40595;SDS011;26304;48.794;9.820;2024-01-11T03:10:16;4.50;;;4.10;;
40595;SDS011;26304;48.794;9.820;2024-01-11T03:12:39;4.57;;;4.20;;
40595;SDS011;26304;48.794;9.820;2024-01-11T03:15:03;4.10;;;3.78;;
40595;SDS011;26304;48.794;9.820;2024-01-11T03:17:28;4.60;;;4.22;;
40595;SDS011;26304;48.794;9.820;2024-01-11T03:19:51;4.28;;;3.97;;
40595;SDS011;26304;48.794;9.820;2024-01-11T03:22:13;4.53;;;4.13;;
40595;SDS011;26304;48.794;9.820;2024-01-11T03:24:37;4.93;;;4.53;;
40595;SDS011;26304;48.794;9.820;2024-01-11T03:27:00;4.32;;;4.03;;
40595;SDS011;26304;48.794;9.820;2024-01-11T03:29:22;4.78;;;4.38;;
40595;SDS011;26304;48.794;9.820;2024-01-11T03:31:47;4.15;;;3.85;;
40595;SDS011;26304;48.794;9.820;2024-01-11T03:34:09;3.92;;;3.63;;
40595;SDS011;26304;48.794;9.820;2024-01-11T03:36:32;4.50;;;4.10;;
40595;SDS011;26304;48.794;9.820;2024-01-11T03:38:57;4.38;;;4.07;;
40595;SDS011;26304;48.794;9.820;2024-01-11T03:41:19;4.63;;;4.22;;
40595;SDS011;26304;48.794;9.820;2024-01-11T03:43:42;4.28;;;3.97;;
40595;SDS011;26304;48.794;9.820;2024-01-11T03:46:05;4.00;;;3.78;;
40595;SDS011;26304;48.794;9.820;2024-01-11T03:48:29;4.13;;;3.83;;
40595;SDS011;26304;48.794;9.820;2024-01-11T03:50:54;4.57;;;4.18;;
40595;SDS011;26304;48.794;9.820;2024-01-11T03:53:16;4.00;;;3.70;;
40595;SDS011;26304;48.794;9.820;2024-01-11T03:55:39;4.50;;;4.20;;
40595;SDS011;26304;48.794;9.820;2024-01-11T03:58:01;3.65;;;3.35;;
40595;SDS011;26304;48.794;9.820;2024-01-11T04:00:24;4.15;;;3.75;;
40595;SDS011;26304;48.794;9.820;2024-01-11T04:02:47;3.92;;;3.63;;
40595;SDS011;26304;48.794;9.820;2024-01-11T04:05:11;4.40;;;4.00;;
40595;SDS011;26304;48.794;9.820;2024-01-11T04:07:32;4.45;;;3.70;;
40595;SDS011;26304;48.794;9.820;2024-01-11T04:09:58;4.53;;;4.13;;
40595;SDS011;26304;48.794;9.820;2024-01-11T04:12:21;4.55;;;4.22;;
40595;SDS011;26304;48.794;9.820;2024-01-11T04:14:43;3.97;;;3.63;;
40595;SDS011;26304;48.794;9.820;2024-01-11T04:17:06;4.88;;;4.38;;
40595;SDS011;26304;48.794;9.820;2024-01-11T04:19:28;4.35;;;3.95;;
40595;SDS011;26304;48.794;9.820;2024-01-11T04:21:52;3.70;;;3.40;;
40595;SDS011;26304;48.794;9.820;2024-01-11T04:24:15;3.75;;;3.45;;
40595;SDS011;26304;48.794;9.820;2024-01-11T04:26:40;4.70;;;4.25;;
40595;SDS011;26304;48.794;9.820;2024-01-11T04:29:02;4.03;;;3.72;;
40595;SDS011;26304;48.794;9.820;2024-01-11T04:31:25;4.00;;;3.70;;
40595;SDS011;26304;48.794;9.820;2024-01-11T04:33:48;4.45;;;4.05;;
40595;SDS011;26304;48.794;9.820;2024-01-11T04:36:10;4.07;;;3.67;;
40595;SDS011;26304;48.794;9.820;2024-01-11T04:38:35;4.50;;;4.10;;
40595;SDS011;26304;48.794;9.820;2024-01-11T04:40:58;4.13;;;3.83;;
40595;SDS011;26304;48.794;9.820;2024-01-11T04:43:23;4.22;;;3.92;;
40595;SDS011;26304;48.794;9.820;2024-01-11T04:45:46;4.78;;;4.38;;
40595;SDS011;26304;48.794;9.820;2024-01-11T04:48:08;3.20;;;3.00;;
40595;SDS011;26304;48.794;9.820;2024-01-11T04:50:31;4.05;;;3.72;;
40595;SDS011;26304;48.794;9.820;2024-01-11T04:52:53;3.90;;;3.60;;
40595;SDS011;26304;48.794;9.820;2024-01-11T04:55:17;4.53;;;4.18;;
40595;SDS011;26304;48.794;9.820;2024-01-11T04:57:43;4.00;;;3.70;;
40595;SDS011;26304;48.794;9.820;2024-01-11T05:00:06;4.03;;;3.72;;
40595;SDS011;26304;48.794;9.820;2024-01-11T05:02:29;3.60;;;3.30;;
40595;SDS011;26304;48.794;9.820;2024-01-11T05:04:54;4.47;;;4.07;;
40595;SDS011;26304;48.794;9.820;2024-01-11T05:07:16;3.55;;;3.25;;
40595;SDS011;26304;48.794;9.820;2024-01-11T05:09:39;3.10;;;2.90;;
40595;SDS011;26304;48.794;9.820;2024-01-11T05:12:04;5.55;;;3.80;;
40595;SDS011;26304;48.794;9.820;2024-01-11T05:14:27;4.30;;;3.60;;
40595;SDS011;26304;48.794;9.820;2024-01-11T05:16:50;4.32;;;3.75;;
40595;SDS011;26304;48.794;9.820;2024-01-11T05:19:12;3.40;;;3.00;;
40595;SDS011;26304;48.794;9.820;2024-01-11T05:21:35;4.85;;;3.65;;
40595;SDS011;26304;48.794;9.820;2024-01-11T05:23:58;3.67;;;3.38;;
40595;SDS011;26304;48.794;9.820;2024-01-11T05:26:20;7.38;;;3.05;;
40595;SDS011;26304;48.794;9.820;2024-01-11T05:28:47;5.78;;;3.65;;
40595;SDS011;26304;48.794;9.820;2024-01-11T05:31:10;3.80;;;3.40;;
40595;SDS011;26304;48.794;9.820;2024-01-11T05:33:35;4.43;;;3.50;;
40595;SDS011;26304;48.794;9.820;2024-01-11T05:36:00;3.38;;;3.08;;
40595;SDS011;26304;48.794;9.820;2024-01-11T05:38:23;3.88;;;3.47;;
40595;SDS011;26304;48.794;9.820;2024-01-11T05:40:46;4.50;;;2.90;;
40595;SDS011;26304;48.794;9.820;2024-01-11T05:43:11;3.90;;;2.97;;
40595;SDS011;26304;48.794;9.820;2024-01-11T05:45:34;3.83;;;3.22;;
40595;SDS011;26304;48.794;9.820;2024-01-11T05:47:57;3.50;;;2.83;;
40595;SDS011;26304;48.794;9.820;2024-01-11T05:50:20;3.90;;;2.90;;
40595;SDS011;26304;48.794;9.820;2024-01-11T05:52:43;3.28;;;2.90;;
40595;SDS011;26304;48.794;9.820;2024-01-11T05:55:08;3.75;;;2.83;;
40595;SDS011;26304;48.794;9.820;2024-01-11T05:57:30;3.92;;;3.10;;
40595;SDS011;26304;48.794;9.820;2024-01-11T05:59:55;3.70;;;3.25;;
40595;SDS011;26304;48.794;9.820;2024-01-11T06:02:19;5.43;;;2.92;;
40595;SDS011;26304;48.794;9.820;2024-01-11T06:04:43;3.20;;;2.90;;
40595;SDS011;26304;48.794;9.820;2024-01-11T06:07:07;3.60;;;3.30;;
40595;SDS011;26304;48.794;9.820;2024-01-11T06:09:33;3.20;;;2.90;;
40595;SDS011;26304;48.794;9.820;2024-01-11T06:11:56;3.88;;;2.97;;
40595;SDS011;26304;48.794;9.820;2024-01-11T06:14:18;3.00;;;2.70;;
40595;SDS011;26304;48.794;9.820;2024-01-11T06:16:44;4.82;;;3.28;;
40595;SDS011;26304;48.794;9.820;2024-01-11T06:19:08;7.60;;;3.63;;
40595;SDS011;26304;48.794;9.820;2024-01-11T06:21:30;3.45;;;3.10;;
40595;SDS011;26304;48.794;9.820;2024-01-11T06:23:53;3.65;;;3.08;;
40595;SDS011;26304;48.794;9.820;2024-01-11T06:26:16;5.07;;;3.70;;
40595;SDS011;26304;48.794;9.820;2024-01-11T06:28:43;4.40;;;3.53;;
40595;SDS011;26304;48.794;9.820;2024-01-11T06:31:06;4.80;;;3.55;;
40595;SDS011;26304;48.794;9.820;2024-01-11T06:33:31;4.72;;;3.67;;
40595;SDS011;26304;48.794;9.820;2024-01-11T06:35:59;6.30;;;4.40;;
40595;SDS011;26304;48.794;9.820;2024-01-11T06:38:21;6.30;;;4.13;;
40595;SDS011;26304;48.794;9.820;2024-01-11T06:40:47;4.40;;;3.80;;
40595;SDS011;26304;48.794;9.820;2024-01-11T06:43:10;4.50;;;3.88;;
40595;SDS011;26304;48.794;9.820;2024-01-11T06:45:35;4.28;;;3.88;;
40595;SDS011;26304;48.794;9.820;2024-01-11T06:47:58;4.55;;;4.03;;
40595;SDS011;26304;48.794;9.820;2024-01-11T06:50:20;5.38;;;3.67;;
40595;SDS011;26304;48.794;9.820;2024-01-11T06:52:44;5.10;;;3.60;;
40595;SDS011;26304;48.794;9.820;2024-01-11T06:55:07;4.30;;;3.67;;
40595;SDS011;26304;48.794;9.820;2024-01-11T06:57:31;4.32;;;3.92;;
40595;SDS011;26304;48.794;9.820;2024-01-11T06:59:53;3.90;;;3.50;;
40595;SDS011;26304;48.794;9.820;2024-01-11T07:02:19;6.95;;;3.90;;
40595;SDS011;26304;48.794;9.820;2024-01-11T07:04:43;4.22;;;3.42;;
40595;SDS011;26304;48.794;9.820;2024-01-11T07:07:09;5.35;;;3.78;;
40595;SDS011;26304;48.794;9.820;2024-01-11T07:09:32;4.45;;;4.05;;
40595;SDS011;26304;48.794;9.820;2024-01-11T07:11:57;4.80;;;3.65;;
40595;SDS011;26304;48.794;9.820;2024-01-11T07:14:19;4.47;;;3.72;;
40595;SDS011;26304;48.794;9.820;2024-01-11T07:16:44;3.78;;;3.42;;
40595;SDS011;26304;48.794;9.820;2024-01-11T07:19:07;7.53;;;3.90;;
40595;SDS011;26304;48.794;9.820;2024-01-11T07:21:29;5.30;;;3.78;;
40595;SDS011;26304;48.794;9.820;2024-01-11T07:23:52;4.20;;;3.50;;
40595;SDS011;26304;48.794;9.820;2024-01-11T07:26:16;4.35;;;3.70;;
40595;SDS011;26304;48.794;9.820;2024-01-11T07:28:39;4.45;;;4.05;;
40595;SDS011;26304;48.794;9.820;2024-01-11T07:31:01;4.60;;;3.33;;
40595;SDS011;26304;48.794;9.820;2024-01-11T07:33:24;3.88;;;3.58;;
40595;SDS011;26304;48.794;9.820;2024-01-11T07:35:46;3.50;;;3.20;;
40595;SDS011;26304;48.794;9.820;2024-01-11T07:38:09;4.03;;;3.33;;
40595;SDS011;26304;48.794;9.820;2024-01-11T07:40:31;4.35;;;3.70;;
40595;SDS011;26304;48.794;9.820;2024-01-11T07:42:55;4.18;;;3.78;;
40595;SDS011;26304;48.794;9.820;2024-01-11T07:45:18;4.05;;;3.40;;
40595;SDS011;26304;48.794;9.820;2024-01-11T07:47:43;4.18;;;3.83;;
40595;SDS011;26304;48.794;9.820;2024-01-11T07:50:08;3.85;;;3.45;;
40595;SDS011;26304;48.794;9.820;2024-01-11T07:52:31;5.82;;;3.42;;
40595;SDS011;26304;48.794;9.820;2024-01-11T07:54:54;4.28;;;3.67;;
40595;SDS011;26304;48.794;9.820;2024-01-11T07:57:16;4.68;;;4.18;;
40595;SDS011;26304;48.794;9.820;2024-01-11T07:59:40;3.45;;;3.15;;
40595;SDS011;26304;48.794;9.820;2024-01-11T08:02:03;4.18;;;3.78;;
40595;SDS011;26304;48.794;9.820;2024-01-11T08:04:27;4.13;;;3.72;;
40595;SDS011;26304;48.794;9.820;2024-01-11T08:06:51;4.03;;;3.63;;
40595;SDS011;26304;48.794;9.820;2024-01-11T08:09:20;3.60;;;3.30;;
40595;SDS011;26304;48.794;9.820;2024-01-11T08:11:42;5.13;;;3.90;;
40595;SDS011;26304;48.794;9.820;2024-01-11T08:14:07;4.47;;;4.07;;
40595;SDS011;26304;48.794;9.820;2024-01-11T08:16:32;3.65;;;3.28;;
40595;SDS011;26304;48.794;9.820;2024-01-11T08:18:55;4.88;;;3.67;;
40595;SDS011;26304;48.794;9.820;2024-01-11T08:21:18;4.25;;;3.85;;
40595;SDS011;26304;48.794;9.820;2024-01-11T08:23:41;3.65;;;3.35;;
40595;SDS011;26304;48.794;9.820;2024-01-11T08:26:05;4.15;;;3.85;;
40595;SDS011;26304;48.794;9.820;2024-01-11T08:28:29;4.22;;;3.63;;
40595;SDS011;26304;48.794;9.820;2024-01-11T08:30:52;4.30;;;3.80;;
40595;SDS011;26304;48.794;9.820;2024-01-11T08:33:16;4.30;;;3.90;;
40595;SDS011;26304;48.794;9.820;2024-01-11T08:35:39;3.90;;;3.55;;
40595;SDS011;26304;48.794;9.820;2024-01-11T08:38:02;4.38;;;3.97;;
40595;SDS011;26304;48.794;9.820;2024-01-11T08:40:25;4.22;;;3.83;;
40595;SDS011;26304;48.794;9.820;2024-01-11T08:42:48;3.40;;;3.05;;
40595;SDS011;26304;48.794;9.820;2024-01-11T08:45:10;4.32;;;3.92;;
40595;SDS011;26304;48.794;9.820;2024-01-11T08:47:38;3.80;;;3.50;;
40595;SDS011;26304;48.794;9.820;2024-01-11T08:50:02;4.30;;;3.90;;
40595;SDS011;26304;48.794;9.820;2024-01-11T08:52:27;4.53;;;4.13;;
40595;SDS011;26304;48.794;9.820;2024-01-11T08:54:52;4.10;;;3.70;;
40595;SDS011;26304;48.794;9.820;2024-01-11T08:57:15;4.72;;;3.40;;
40595;SDS011;26304;48.794;9.820;2024-01-11T08:59:38;3.65;;;3.33;;
40595;SDS011;26304;48.794;9.820;2024-01-11T09:02:00;3.42;;;3.13;;
40595;SDS011;26304;48.794;9.820;2024-01-11T09:04:23;3.95;;;3.65;;
40595;SDS011;26304;48.794;9.820;2024-01-11T09:06:47;4.45;;;4.05;;
40595;SDS011;26304;48.794;9.820;2024-01-11T09:09:10;4.00;;;3.60;;
40595;SDS011;26304;48.794;9.820;2024-01-11T09:11:34;4.50;;;4.10;;
40595;SDS011;26304;48.794;9.820;2024-01-11T09:13:59;3.63;;;3.33;;
40595;SDS011;26304;48.794;9.820;2024-01-11T09:16:25;4.15;;;3.75;;
40595;SDS011;26304;48.794;9.820;2024-01-11T09:18:47;4.25;;;3.70;;
40595;SDS011;26304;48.794;9.820;2024-01-11T09:21:10;4.72;;;3.70;;
40595;SDS011;26304;48.794;9.820;2024-01-11T09:23:35;4.78;;;4.38;;
40595;SDS011;26304;48.794;9.820;2024-01-11T09:25:57;4.35;;;3.95;;
40595;SDS011;26304;48.794;9.820;2024-01-11T09:28:20;4.03;;;3.72;;
40595;SDS011;26304;48.794;9.820;2024-01-11T09:30:42;4.53;;;4.13;;
40595;SDS011;26304;48.794;9.820;2024-01-11T09:33:05;3.92;;;3.60;;
40595;SDS011;26304;48.794;9.820;2024-01-11T09:35:29;4.20;;;3.80;;
40595;SDS011;26304;48.794;9.820;2024-01-11T09:37:52;3.90;;;3.47;;
40595;SDS011;26304;48.794;9.820;2024-01-11T09:40:16;4.18;;;3.78;;
40595;SDS011;26304;48.794;9.820;2024-01-11T09:42:39;4.20;;;3.70;;
40595;SDS011;26304;48.794;9.820;2024-01-11T09:45:03;4.20;;;3.83;;
40595;SDS011;26304;48.794;9.820;2024-01-11T09:47:30;3.70;;;3.40;;
40595;SDS011;26304;48.794;9.820;2024-01-11T09:49:54;4.38;;;3.97;;
40595;SDS011;26304;48.794;9.820;2024-01-11T09:52:21;4.45;;;4.05;;
40595;SDS011;26304;48.794;9.820;2024-01-11T09:54:46;4.38;;;3.97;;
40595;SDS011;26304;48.794;9.820;2024-01-11T09:57:10;4.57;;;3.90;;
40595;SDS011;26304;48.794;9.820;2024-01-11T09:59:33;4.05;;;3.67;;
40595;SDS011;26304;48.794;9.820;2024-01-11T10:01:58;4.07;;;3.78;;
40595;SDS011;26304;48.794;9.820;2024-01-11T10:04:24;4.30;;;4.00;;
40595;SDS011;26304;48.794;9.820;2024-01-11T10:06:47;3.72;;;3.42;;
40595;SDS011;26304;48.794;9.820;2024-01-11T10:09:12;4.15;;;3.75;;
40595;SDS011;26304;48.794;9.820;2024-01-11T10:11:37;3.92;;;3.63;;
40595;SDS011;26304;48.794;9.820;2024-01-11T10:14:01;4.25;;;3.85;;
40595;SDS011;26304;48.794;9.820;2024-01-11T10:16:26;4.40;;;4.00;;
40595;SDS011;26304;48.794;9.820;2024-01-11T10:18:49;3.97;;;3.58;;
40595;SDS011;26304;48.794;9.820;2024-01-11T10:21:16;4.45;;;4.05;;
40595;SDS011;26304;48.794;9.820;2024-01-11T10:23:39;4.10;;;3.67;;
40595;SDS011;26304;48.794;9.820;2024-01-11T10:26:03;3.97;;;3.67;;
40595;SDS011;26304;48.794;9.820;2024-01-11T10:28:28;4.25;;;3.50;;
40595;SDS011;26304;48.794;9.820;2024-01-11T10:30:52;3.95;;;3.58;;
40595;SDS011;26304;48.794;9.820;2024-01-11T10:33:15;8.55;;;7.00;;
40595;SDS011;26304;48.794;9.820;2024-01-11T10:35:41;18.98;;;15.90;;
40595;SDS011;26304;48.794;9.820;2024-01-11T10:38:04;21.13;;;19.05;;
40595;SDS011;26304;48.794;9.820;2024-01-11T10:40:33;25.20;;;22.85;;
40595;SDS011;26304;48.794;9.820;2024-01-11T10:42:56;25.23;;;22.77;;
40595;SDS011;26304;48.794;9.820;2024-01-11T10:45:22;25.27;;;22.77;;
40595;SDS011;26304;48.794;9.820;2024-01-11T10:47:50;24.50;;;22.10;;
40595;SDS011;26304;48.794;9.820;2024-01-11T10:50:15;24.23;;;21.63;;
40595;SDS011;26304;48.794;9.820;2024-01-11T10:52:42;25.38;;;22.77;;
40595;SDS011;26304;48.794;9.820;2024-01-11T10:55:12;22.67;;;20.38;;
40595;SDS011;26304;48.794;9.820;2024-01-11T10:57:37;23.98;;;21.48;;
40595;SDS011;26304;48.794;9.820;2024-01-11T11:00:01;23.00;;;20.73;;
40595;SDS011;26304;48.794;9.820;2024-01-11T11:02:26;23.48;;;20.95;;
40595;SDS011;26304;48.794;9.820;2024-01-11T11:04:51;21.45;;;19.35;;
40595;SDS011;26304;48.794;9.820;2024-01-11T11:07:15;21.63;;;19.42;;
40595;SDS011;26304;48.794;9.820;2024-01-11T11:09:38;21.38;;;19.17;;
40595;SDS011;26304;48.794;9.820;2024-01-11T11:12:04;21.33;;;19.23;;
40595;SDS011;26304;48.794;9.820;2024-01-11T11:14:31;20.08;;;18.00;;
40595;SDS011;26304;48.794;9.820;2024-01-11T11:16:56;20.88;;;18.90;;
40595;SDS011;26304;48.794;9.820;2024-01-11T11:19:19;18.48;;;16.73;;
40595;SDS011;26304;48.794;9.820;2024-01-11T11:21:44;19.08;;;17.17;;
40595;SDS011;26304;48.794;9.820;2024-01-11T11:24:06;19.45;;;17.52;;
40595;SDS011;26304;48.794;9.820;2024-01-11T11:26:31;18.02;;;16.27;;
40595;SDS011;26304;48.794;9.820;2024-01-11T11:28:54;17.85;;;16.05;;
40595;SDS011;26304;48.794;9.820;2024-01-11T11:33:58;18.02;;;16.23;;
40595;SDS011;26304;48.794;9.820;2024-01-11T11:36:23;17.42;;;15.68;;
40595;SDS011;26304;48.794;9.820;2024-01-11T11:38:53;17.95;;;16.15;;
40595;SDS011;26304;48.794;9.820;2024-01-11T11:41:21;16.63;;;14.95;;
40595;SDS011;26304;48.794;9.820;2024-01-11T11:43:43;15.25;;;13.73;;
40595;SDS011;26304;48.794;9.820;2024-01-11T11:46:10;16.85;;;14.85;;
40595;SDS011;26304;48.794;9.820;2024-01-11T11:48:48;16.35;;;14.75;;
40595;SDS011;26304;48.794;9.820;2024-01-11T11:51:12;16.27;;;14.70;;
40595;SDS011;26304;48.794;9.820;2024-01-11T11:53:36;16.67;;;15.00;;
40595;SDS011;26304;48.794;9.820;2024-01-11T11:56:01;16.83;;;15.32;;
40595;SDS011;26304;48.794;9.820;2024-01-11T11:58:27;15.98;;;14.35;;
40595;SDS011;26304;48.794;9.820;2024-01-11T12:00:50;15.20;;;13.73;;
40595;SDS011;26304;48.794;9.820;2024-01-11T12:03:13;15.13;;;13.57;;
40595;SDS011;26304;48.794;9.820;2024-01-11T12:05:37;15.07;;;13.68;;
40595;SDS011;26304;48.794;9.820;2024-01-11T12:08:00;15.20;;;13.70;;
40595;SDS011;26304;48.794;9.820;2024-01-11T12:10:23;15.23;;;13.63;;
40595;SDS011;26304;48.794;9.820;2024-01-11T12:12:46;15.13;;;13.52;;
40595;SDS011;26304;48.794;9.820;2024-01-11T12:15:11;15.60;;;14.10;;
40595;SDS011;26304;48.794;9.820;2024-01-11T12:17:33;14.27;;;12.98;;
40595;SDS011;26304;48.794;9.820;2024-01-11T12:19:56;14.40;;;13.13;;
40595;SDS011;26304;48.794;9.820;2024-01-11T12:22:18;15.77;;;14.18;;
40595;SDS011;26304;48.794;9.820;2024-01-11T12:24:41;14.95;;;13.50;;
40595;SDS011;26304;48.794;9.820;2024-01-11T12:27:03;15.25;;;13.80;;
40595;SDS011;26304;48.794;9.820;2024-01-11T12:29:30;13.57;;;12.30;;
40595;SDS011;26304;48.794;9.820;2024-01-11T12:31:53;14.77;;;13.38;;
40595;SDS011;26304;48.794;9.820;2024-01-11T12:34:20;14.00;;;12.52;;
40595;SDS011;26304;48.794;9.820;2024-01-11T12:36:47;13.52;;;12.15;;
40595;SDS011;26304;48.794;9.820;2024-01-11T12:39:11;12.40;;;11.20;;
40595;SDS011;26304;48.794;9.820;2024-01-11T12:41:34;14.32;;;12.93;;
40595;SDS011;26304;48.794;9.820;2024-01-11T12:43:57;13.95;;;12.65;;
40595;SDS011;26304;48.794;9.820;2024-01-11T12:46:21;14.23;;;12.70;;
40595;SDS011;26304;48.794;9.820;2024-01-11T12:48:45;13.50;;;12.25;;
40595;SDS011;26304;48.794;9.820;2024-01-11T12:51:08;14.05;;;12.73;;
40595;SDS011;26304;48.794;9.820;2024-01-11T12:53:31;13.68;;;12.30;;
40595;SDS011;26304;48.794;9.820;2024-01-11T12:56:01;15.07;;;13.57;;
40595;SDS011;26304;48.794;9.820;2024-01-11T12:58:29;13.27;;;11.93;;
40595;SDS011;26304;48.794;9.820;2024-01-11T13:00:51;14.00;;;12.38;;
40595;SDS011;26304;48.794;9.820;2024-01-11T13:03:15;14.32;;;12.82;;
40595;SDS011;26304;48.794;9.820;2024-01-11T13:05:40;13.68;;;12.38;;
40595;SDS011;26304;48.794;9.820;2024-01-11T13:08:03;12.90;;;11.70;;
40595;SDS011;26304;48.794;9.820;2024-01-11T13:10:30;13.13;;;11.80;;
40595;SDS011;26304;48.794;9.820;2024-01-11T13:12:52;12.95;;;11.75;;
40595;SDS011;26304;48.794;9.820;2024-01-11T13:15:15;12.90;;;11.75;;
40595;SDS011;26304;48.794;9.820;2024-01-11T13:17:38;12.18;;;11.05;;
40595;SDS011;26304;48.794;9.820;2024-01-11T13:20:02;14.05;;;12.68;;
40595;SDS011;26304;48.794;9.820;2024-01-11T13:22:28;13.02;;;11.77;;
40595;SDS011;26304;48.794;9.820;2024-01-11T13:24:50;12.25;;;11.15;;
40595;SDS011;26304;48.794;9.820;2024-01-11T13:27:13;13.10;;;11.82;;
40595;SDS011;26304;48.794;9.820;2024-01-11T13:29:38;12.45;;;11.25;;
40595;SDS011;26304;48.794;9.820;2024-01-11T13:32:00;14.02;;;12.55;;
40595;SDS011;26304;48.794;9.820;2024-01-11T13:34:23;13.35;;;11.30;;
40595;SDS011;26304;48.794;9.820;2024-01-11T13:36:47;12.90;;;11.48;;
40595;SDS011;26304;48.794;9.820;2024-01-11T13:39:09;12.35;;;11.18;;
40595;SDS011;26304;48.794;9.820;2024-01-11T13:41:32;12.55;;;11.35;;
40595;SDS011;26304;48.794;9.820;2024-01-11T13:43:54;12.90;;;11.70;;
40595;SDS011;26304;48.794;9.820;2024-01-11T13:46:17;12.80;;;11.55;;
40595;SDS011;26304;48.794;9.820;2024-01-11T13:48:40;12.60;;;11.30;;
40595;SDS011;26304;48.794;9.820;2024-01-11T13:51:03;13.18;;;11.93;;
40595;SDS011;26304;48.794;9.820;2024-01-11T13:53:30;12.20;;;11.00;;
40595;SDS011;26304;48.794;9.820;2024-01-11T13:55:52;11.98;;;10.77;;
40595;SDS011;26304;48.794;9.820;2024-01-11T13:58:16;12.70;;;11.38;;
40595;SDS011;26304;48.794;9.820;2024-01-11T14:00:41;12.98;;;11.68;;
40595;SDS011;26304;48.794;9.820;2024-01-11T14:03:04;12.82;;;11.73;;
40595;SDS011;26304;48.794;9.820;2024-01-11T14:05:29;12.25;;;11.13;;
40595;SDS011;26304;48.794;9.820;2024-01-11T14:07:52;12.52;;;11.27;;
40595;SDS011;26304;48.794;9.820;2024-01-11T14:10:20;13.68;;;12.27;;
40595;SDS011;26304;48.794;9.820;2024-01-11T14:12:42;13.13;;;11.85;;
40595;SDS011;26304;48.794;9.820;2024-01-11T14:15:08;14.48;;;12.98;;
40595;SDS011;26304;48.794;9.820;2024-01-11T14:17:35;13.90;;;12.38;;
40595;SDS011;26304;48.794;9.820;2024-01-11T14:19:58;13.88;;;12.55;;
40595;SDS011;26304;48.794;9.820;2024-01-11T14:22:21;13.90;;;12.60;;
40595;SDS011;26304;48.794;9.820;2024-01-11T14:24:43;14.90;;;13.25;;
40595;SDS011;26304;48.794;9.820;2024-01-11T14:27:10;14.88;;;13.48;;
40595;SDS011;26304;48.794;9.820;2024-01-11T14:29:35;15.60;;;14.00;;